createdAt,value
2019-02-25T00:08:42.393Z,101237.98
2019-02-25T00:18:54.288Z,101237.58
2019-02-25T00:29:07.406Z,101235.31
2019-02-25T00:39:19.304Z,101239.52
2019-02-25T00:49:31.812Z,101233.28
2019-02-25T00:59:44.517Z,101242.27
2019-02-25T01:09:56.933Z,101264.84
2019-02-25T01:20:08.734Z,101256.87
2019-02-25T01:30:21.985Z,101263.55
2019-02-25T01:40:33.736Z,101271.37
2019-02-25T01:50:46.025Z,101273.92
2019-02-25T02:00:57.720Z,101265.32
2019-02-25T02:11:10.360Z,101266.58
2019-02-25T02:21:22.000Z,101246.64
2019-02-25T02:31:35.582Z,101254.10
2019-02-25T02:41:48.556Z,101254.89
2019-02-25T02:52:01.152Z,101257.16
2019-02-25T03:02:15.457Z,101250.24
2019-02-25T03:12:27.913Z,101248.13
2019-02-25T03:22:40.604Z,101249.02
2019-02-25T03:32:52.558Z,101244.70
2019-02-25T03:43:04.703Z,101244.88
2019-02-25T03:53:17.610Z,101245.44
2019-02-25T04:03:29.845Z,101238.20
2019-02-25T04:13:41.974Z,101235.78
2019-02-25T04:23:53.484Z,101246.33
2019-02-25T04:34:08.062Z,101248.41
2019-02-25T04:44:21.162Z,101247.74
2019-02-25T04:54:34.243Z,101228.24
2019-02-25T05:04:46.107Z,101236.69
2019-02-25T05:14:57.847Z,101224.94
2019-02-25T05:25:10.417Z,101234.20
2019-02-25T05:35:22.214Z,101240.48
2019-02-25T05:45:33.844Z,101231.61
2019-02-25T05:55:46.420Z,101255.40
2019-02-25T06:05:57.919Z,101277.90
2019-02-25T06:16:10.108Z,101282.11
2019-02-25T06:26:22.577Z,101267.11
2019-02-25T06:36:34.535Z,101262.44
2019-02-25T06:46:47.418Z,101259.62
2019-02-25T06:57:00.657Z,101260.02
2019-02-25T07:07:12.018Z,101277.20
2019-02-25T07:17:24.151Z,101269.91
2019-02-25T07:27:36.368Z,101276.84
2019-02-25T07:37:47.988Z,101286.45
2019-02-25T07:47:59.969Z,101280.03
2019-02-25T07:58:11.686Z,101279.09
2019-02-25T08:08:24.605Z,101280.46
2019-02-25T08:18:36.108Z,101281.41
2019-02-25T08:28:48.043Z,101269.70
2019-02-25T08:39:00.488Z,101300.13
2019-02-25T08:49:12.054Z,101298.61
2019-02-25T08:59:23.680Z,101290.13
2019-02-25T09:09:36.801Z,101295.02
2019-02-25T09:19:49.094Z,101297.05
2019-02-25T09:30:01.135Z,101278.80
2019-02-25T09:40:13.703Z,101278.02
2019-02-25T09:50:25.421Z,101276.98
2019-02-25T10:00:37.036Z,101265.17
2019-02-25T10:10:50.234Z,101250.52
2019-02-25T10:41:36.674Z,101228.89
2019-02-25T10:51:43.941Z,101209.38
2019-02-25T11:01:57.212Z,101234.31
2019-02-25T11:12:00.145Z,101279.12
2019-02-25T11:22:02.095Z,101222.95
2019-02-25T11:32:03.659Z,101215.38
2019-02-25T11:42:06.107Z,101215.08
2019-02-25T11:52:07.279Z,101155.09
2019-02-25T12:02:08.521Z,101030.25
2019-02-25T12:12:11.394Z,101040.84
2019-02-25T12:22:12.072Z,101158.09
2019-02-25T12:32:15.825Z,101142.72
2019-02-25T12:42:16.541Z,101076.20
2019-02-25T12:52:34.279Z,100995.56
2019-02-25T13:02:33.845Z,100895.84
2019-02-25T13:12:34.871Z,100928.39
2019-02-25T13:22:40.234Z,100921.66
2019-02-25T13:32:41.162Z,100823.35
2019-02-25T13:42:41.952Z,100876.71
2019-02-25T13:52:48.439Z,100763.86
2019-02-25T14:13:09.271Z,100741.56
2019-02-25T14:23:09.973Z,100957.45
2019-02-25T14:33:12.633Z,100967.56
2019-02-25T14:43:15.657Z,100932.36
2019-02-25T14:53:17.021Z,100775.36
2019-02-25T15:03:18.102Z,100920.31
2019-02-25T15:13:24.018Z,100826.27
2019-02-25T15:23:36.734Z,100792.59
2019-02-25T15:33:51.875Z,100713.07
2019-02-25T15:43:53.342Z,100737.89
2019-02-25T15:53:55.773Z,100819.67
2019-02-25T16:04:02.223Z,100839.99
2019-02-25T16:14:03.381Z,100941.29
2019-02-25T16:24:08.257Z,100928.59
2019-02-25T16:34:11.725Z,100837.95
2019-02-25T16:44:12.974Z,101001.25
2019-02-25T16:54:18.169Z,101146.83
2019-02-25T17:04:20.559Z,101169.42
2019-02-25T17:14:21.683Z,100994.66
2019-02-25T17:24:24.115Z,101007.05
2019-02-25T17:34:26.460Z,101020.02
2019-02-25T17:44:29.745Z,101036.86
2019-02-25T17:54:31.640Z,101045.39
2019-02-25T18:04:36.385Z,101056.55
2019-02-25T18:14:39.393Z,101061.20
2019-02-25T18:24:43.244Z,101071.47
2019-02-25T18:34:43.039Z,101081.52
2019-02-25T18:44:44.867Z,101079.41
2019-02-25T18:54:57.466Z,101073.83
2019-02-25T19:04:59.814Z,101054.77
2019-02-25T19:15:15.862Z,101057.92
2019-02-25T19:25:25.791Z,101064.83
2019-02-25T19:35:28.694Z,101069.56
2019-02-25T19:45:29.551Z,101075.45
2019-02-25T19:55:40.483Z,101069.47
2019-02-25T20:05:43.289Z,101068.41
2019-02-25T20:15:42.492Z,101070.13
2019-02-25T20:25:48.507Z,101059.87
2019-02-25T20:35:51.248Z,101060.97
2019-02-25T20:45:54.093Z,101063.33
2019-02-25T20:55:54.572Z,101054.80
2019-02-25T21:16:20.958Z,101055.73
2019-02-25T21:26:25.458Z,101038.92
2019-02-25T21:36:25.329Z,101043.10
2019-02-25T21:46:27.009Z,101033.06
2019-02-25T21:56:37.364Z,101026.49
2019-02-25T22:06:38.256Z,101018.35
2019-02-25T22:16:44.061Z,101018.33
2019-02-25T22:26:41.955Z,101016.52
2019-02-25T22:36:44.344Z,101000.59
2019-02-25T22:46:49.471Z,100993.76
2019-02-25T22:56:50.686Z,100998.70
2019-02-25T23:06:53.350Z,101014.64
2019-02-25T23:16:53.929Z,101015.75
2019-02-25T23:26:55.805Z,101026.53
2019-02-25T23:36:57.555Z,101037.09
2019-02-25T23:47:00.171Z,101032.61
2019-02-25T23:57:09.738Z,101041.38
